AQQ10 IFIS: Internet Flight Information System
logo dgac
Martes 06 de Diciembre del 2022
Buscar por aerodromo o helipuerto
Ingrese nombre de aeródromo, localidad o designador OACI:
METAR del 05-12-2022 a las 22:00 UTC
Para mayor información visite www.meteochile.cl
METAR SCCH 052200Z 24012KT CAVOK 26/05 Q1013
Viento: dirección 240 grados, velocidad 12 nudos
Visibilidad: 10 km o más,
    sin nubes bajo los 5.000 pies o bajo del MSA (Mínimo de Seguridad del Aeródromo),
    sin cumulonimbus, y sin fenómenos de tiempo significativo en el aeródromo o alrededores
Temperatura: 26 °C
Rocío: 5 °C
Humedad_relativa: 26%
Presión: 1013 hPa
METAR del 05-12-2022 a las 21:00 UTC
Para mayor información visite www.meteochile.cl
METAR SCCH 052100Z 27012KT CAVOK 28/06 Q1012
Viento: dirección 270 grados, velocidad 12 nudos
Visibilidad: 10 km o más,
    sin nubes bajo los 5.000 pies o bajo del MSA (Mínimo de Seguridad del Aeródromo),
    sin cumulonimbus, y sin fenómenos de tiempo significativo en el aeródromo o alrededores
Temperatura: 28 °C
Rocío: 6 °C
Humedad_relativa: 25%
Presión: 1012 hPa
METAR del 05-12-2022 a las 20:00 UTC
Para mayor información visite www.meteochile.cl
METAR SCCH 052000Z 24010KT CAVOK 30/05 Q1012
Viento: dirección 240 grados, velocidad 10 nudos
Visibilidad: 10 km o más,
    sin nubes bajo los 5.000 pies o bajo del MSA (Mínimo de Seguridad del Aeródromo),
    sin cumulonimbus, y sin fenómenos de tiempo significativo en el aeródromo o alrededores
Temperatura: 30 °C
Rocío: 5 °C
Humedad_relativa: 21%
Presión: 1012 hPa
METAR del 05-12-2022 a las 19:00 UTC
Para mayor información visite www.meteochile.cl
METAR SCCH 051900Z 25009KT CAVOK 29/08 Q1012
Viento: dirección 250 grados, velocidad 9 nudos
Visibilidad: 10 km o más,
    sin nubes bajo los 5.000 pies o bajo del MSA (Mínimo de Seguridad del Aeródromo),
    sin cumulonimbus, y sin fenómenos de tiempo significativo en el aeródromo o alrededores
Temperatura: 29 °C
Rocío: 8 °C
Humedad_relativa: 27%
Presión: 1012 hPa
METAR del 05-12-2022 a las 18:00 UTC
Para mayor información visite www.meteochile.cl
METAR SCCH 051800Z 23006KT CAVOK 29/08 Q1012
Viento: dirección 230 grados, velocidad 6 nudos
Visibilidad: 10 km o más,
    sin nubes bajo los 5.000 pies o bajo del MSA (Mínimo de Seguridad del Aeródromo),
    sin cumulonimbus, y sin fenómenos de tiempo significativo en el aeródromo o alrededores
Temperatura: 29 °C
Rocío: 8 °C
Humedad_relativa: 27%
Presión: 1012 hPa
METAR del 05-12-2022 a las 17:00 UTC
Para mayor información visite www.meteochile.cl
METAR SCCH 051700Z 30006KT CAVOK 27/06 Q1013
Viento: dirección 300 grados, velocidad 6 nudos
Visibilidad: 10 km o más,
    sin nubes bajo los 5.000 pies o bajo del MSA (Mínimo de Seguridad del Aeródromo),
    sin cumulonimbus, y sin fenómenos de tiempo significativo en el aeródromo o alrededores
Temperatura: 27 °C
Rocío: 6 °C
Humedad_relativa: 26%
Presión: 1013 hPa
METAR del 05-12-2022 a las 16:00 UTC
Para mayor información visite www.meteochile.cl
METAR SCCH 051600Z 27008KT CAVOK 26/07 Q1012
Viento: dirección 270 grados, velocidad 8 nudos
Visibilidad: 10 km o más,
    sin nubes bajo los 5.000 pies o bajo del MSA (Mínimo de Seguridad del Aeródromo),
    sin cumulonimbus, y sin fenómenos de tiempo significativo en el aeródromo o alrededores
Temperatura: 26 °C
Rocío: 7 °C
Humedad_relativa: 30%
Presión: 1012 hPa
METAR del 05-12-2022 a las 15:00 UTC
Para mayor información visite www.meteochile.cl
METAR SCCH 051500Z 25007KT CAVOK 24/10 Q1012
Viento: dirección 250 grados, velocidad 7 nudos
Visibilidad: 10 km o más,
    sin nubes bajo los 5.000 pies o bajo del MSA (Mínimo de Seguridad del Aeródromo),
    sin cumulonimbus, y sin fenómenos de tiempo significativo en el aeródromo o alrededores
Temperatura: 24 °C
Rocío: 10 °C
Humedad_relativa: 41%
Presión: 1012 hPa
METAR del 05-12-2022 a las 14:00 UTC
Para mayor información visite www.meteochile.cl
METAR SCCH 051400Z 24005KT CAVOK 22/10 Q1012
Viento: dirección 240 grados, velocidad 5 nudos
Visibilidad: 10 km o más,
    sin nubes bajo los 5.000 pies o bajo del MSA (Mínimo de Seguridad del Aeródromo),
    sin cumulonimbus, y sin fenómenos de tiempo significativo en el aeródromo o alrededores
Temperatura: 22 °C
Rocío: 10 °C
Humedad_relativa: 46%
Presión: 1012 hPa
METAR del 05-12-2022 a las 13:00 UTC
Para mayor información visite www.meteochile.cl
METAR SCCH 051300Z 22004KT CAVOK 19/10 Q1012
Viento: dirección 220 grados, velocidad 4 nudos
Visibilidad: 10 km o más,
    sin nubes bajo los 5.000 pies o bajo del MSA (Mínimo de Seguridad del Aeródromo),
    sin cumulonimbus, y sin fenómenos de tiempo significativo en el aeródromo o alrededores
Temperatura: 19 °C
Rocío: 10 °C
Humedad_relativa: 56%
Presión: 1012 hPa